Mountain Brook, Alabama
Current Conditions -  °F | °C
As of 7:53 AM on Friday 19 Dec 2014 (Local Time) from KBHM Reporting Station
Overcast Overcast  
Wind Chill: 37°   Ceiling: 25000
Heat Index: 37°   Visibility: 7mi
Dew Point: 34°   Wind: 0mph
Humidity: 89%   Direction: NA
Pressure: 30.23"   Gusts: NA
Location:  33.5°N, 86.75°W
Report Text: KBHM 191353Z 00000KT 7SM OVC250 03/01 A3023 RMK AO2 SLP240 T00280011
Loading
Personal Weather Stations






























Interactive Weather Map New forecast layout! Learn more

10-Day Weather Forecast

Advertisements
Track Severe Weather on mobile